Time;durP1;ratioP1;P1;durP2;ratioP2;P2;SDS_P1;SDS_P2;PMS_P1;PMS_P2;Temp;Humidity;BMP_temperature;BMP_pressure;BME280_temperature;BME280_humidity;BME280_pressure;Samples;Min_cycle;Max_cycle;Signal;HPM_P1;HPM_P2
2023/07/16 00:02:16;;;;;;;2.47;2.10;;;;;;;;;;5073413;28;20283;-53
2023/07/16 00:04:42;;;;;;;4.33;2.10;;;;;;;;;;5073401;28;20223;-54
2023/07/16 00:07:10;;;;;;;2.73;1.80;;;;;;;;;;5073550;28;20249;-53
2023/07/16 00:09:36;;;;;;;3.07;1.90;;;;;;;;;;5073098;28;20590;-52
2023/07/16 00:12:02;;;;;;;3.83;1.80;;;;;;;;;;5073313;28;20249;-54
2023/07/16 00:14:29;;;;;;;2.30;1.90;;;;;;;;;;5073246;28;20291;-54
2023/07/16 00:16:55;;;;;;;3.37;1.90;;;;;;;;;;5073381;28;20206;-52
2023/07/16 00:19:21;;;;;;;2.93;1.73;;;;;;;;;;5073052;28;20560;-54
2023/07/16 00:21:47;;;;;;;3.10;2.00;;;;;;;;;;5072846;28;20664;-53
2023/07/16 00:24:13;;;;;;;4.30;2.17;;;;;;;;;;5073154;28;20289;-51
2023/07/16 00:26:39;;;;;;;2.30;2.10;;;;;;;;;;5073210;28;20195;-52
2023/07/16 00:29:05;;;;;;;4.67;1.83;;;;;;;;;;5073025;28;20227;-52
2023/07/16 00:31:33;;;;;;;3.13;2.00;;;;;;;;;;5072928;28;20854;-54
2023/07/16 00:33:59;;;;;;;3.00;2.00;;;;;;;;;;5072889;28;20297;-53
2023/07/16 00:36:25;;;;;;;4.60;2.40;;;;;;;;;;5072719;28;20658;-53
2023/07/16 00:38:51;;;;;;;3.53;2.20;;;;;;;;;;5072873;28;20202;-52
2023/07/16 00:41:17;;;;;;;3.83;2.43;;;;;;;;;;5072649;28;20202;-53
2023/07/16 00:43:43;;;;;;;2.63;2.23;;;;;;;;;;5072496;28;20238;-53
2023/07/16 00:46:09;;;;;;;3.77;2.30;;;;;;;;;;5072750;28;20278;-53
2023/07/16 00:48:36;;;;;;;3.20;2.30;;;;;;;;;;5072413;28;20226;-53
2023/07/16 00:51:03;;;;;;;3.47;2.13;;;;;;;;;;5072501;28;20211;-53
2023/07/16 00:53:29;;;;;;;2.47;2.27;;;;;;;;;;5072508;28;20198;-53
2023/07/16 00:55:55;;;;;;;4.20;2.40;;;;;;;;;;5072659;28;20201;-53
2023/07/16 00:58:21;;;;;;;3.47;2.40;;;;;;;;;;5072345;28;20636;-53
2023/07/16 01:00:47;;;;;;;2.90;2.20;;;;;;;;;;5072444;28;20210;-52
2023/07/16 01:03:14;;;;;;;3.17;2.37;;;;;;;;;;5072223;28;20213;-53
2023/07/16 01:05:46;;;;;;;3.73;2.57;;;;;;;;;;5072389;28;20235;-53
2023/07/16 01:08:12;;;;;;;2.57;2.23;;;;;;;;;;5072247;28;20571;-52
2023/07/16 01:10:39;;;;;;;3.17;2.20;;;;;;;;;;5072131;28;20618;-52
2023/07/16 01:13:05;;;;;;;4.57;2.63;;;;;;;;;;5072288;28;20233;-53
2023/07/16 01:15:31;;;;;;;3.83;2.60;;;;;;;;;;5072021;28;20206;-53
2023/07/16 01:17:58;;;;;;;3.10;2.60;;;;;;;;;;5072101;28;20252;-52
2023/07/16 01:20:25;;;;;;;4.60;2.53;;;;;;;;;;5072158;28;20619;-53
2023/07/16 01:23:10;;;;;;;3.07;2.60;;;;;;;;;;5072019;28;20202;-53
2023/07/16 01:25:52;;;;;;;4.90;2.93;;;;;;;;;;5071794;28;20196;-52
2023/07/16 01:28:27;;;;;;;3.33;2.67;;;;;;;;;;5071779;28;20311;-52
2023/07/16 01:30:56;;;;;;;3.70;2.70;;;;;;;;;;5071986;28;20207;-52
2023/07/16 01:33:22;;;;;;;3.00;2.60;;;;;;;;;;5071358;28;20702;-51
2023/07/16 01:35:49;;;;;;;5.93;2.60;;;;;;;;;;5071830;28;20198;-52
2023/07/16 01:38:18;;;;;;;3.97;2.50;;;;;;;;;;5071844;28;20245;-52
2023/07/16 01:40:44;;;;;;;3.57;2.70;;;;;;;;;;5071671;28;20201;-52
2023/07/16 01:43:10;;;;;;;2.47;2.20;;;;;;;;;;5071679;28;20239;-53
2023/07/16 01:45:36;;;;;;;3.73;2.90;;;;;;;;;;5071571;28;20202;-53
2023/07/16 01:48:07;;;;;;;4.17;2.30;;;;;;;;;;5071676;28;20223;-53
2023/07/16 01:50:34;;;;;;;3.67;2.60;;;;;;;;;;5071465;28;20260;-52
2023/07/16 01:53:00;;;;;;;2.50;1.90;;;;;;;;;;5071579;28;20664;-53
2023/07/16 01:55:26;;;;;;;3.10;2.27;;;;;;;;;;5071529;28;20201;-52
2023/07/16 01:57:52;;;;;;;3.53;2.30;;;;;;;;;;5071773;28;20202;-52
2023/07/16 02:00:18;;;;;;;4.47;2.40;;;;;;;;;;5071445;28;20204;-53
2023/07/16 02:02:44;;;;;;;2.93;2.27;;;;;;;;;;5071754;28;20557;-52
2023/07/16 02:05:11;;;;;;;2.70;1.93;;;;;;;;;;5071480;28;20221;-52
2023/07/16 02:07:37;;;;;;;4.47;2.10;;;;;;;;;;5071519;28;20564;-53
2023/07/16 02:10:04;;;;;;;2.50;2.30;;;;;;;;;;5071489;28;20237;-53
2023/07/16 02:12:30;;;;;;;2.53;2.20;;;;;;;;;;5071374;28;20255;-52
2023/07/16 02:14:56;;;;;;;3.03;2.00;;;;;;;;;;5071548;28;20205;-54
2023/07/16 02:17:22;;;;;;;3.60;2.10;;;;;;;;;;5071352;28;20200;-52
2023/07/16 02:19:48;;;;;;;2.97;2.50;;;;;;;;;;5069580;28;20245;-52
2023/07/16 02:22:15;;;;;;;2.93;2.00;;;;;;;;;;5071405;28;20694;-53
2023/07/16 02:24:41;;;;;;;3.03;2.50;;;;;;;;;;5071322;28;20679;-52
2023/07/16 02:27:08;;;;;;;2.90;2.60;;;;;;;;;;5071314;28;20196;-52
2023/07/16 02:29:34;;;;;;;3.50;2.97;;;;;;;;;;5071262;28;20236;-52
2023/07/16 02:32:00;;;;;;;4.20;2.37;;;;;;;;;;5071290;28;20271;-52
2023/07/16 02:34:26;;;;;;;3.80;2.93;;;;;;;;;;5071193;28;20264;-53
2023/07/16 02:36:52;;;;;;;3.57;2.80;;;;;;;;;;5071375;28;20197;-53
2023/07/16 02:39:19;;;;;;;3.47;2.40;;;;;;;;;;5071121;28;20196;-53
2023/07/16 02:41:45;;;;;;;4.67;2.67;;;;;;;;;;5071057;28;20233;-52
2023/07/16 02:44:11;;;;;;;3.77;2.60;;;;;;;;;;5071019;28;20229;-53
2023/07/16 02:46:38;;;;;;;4.07;2.47;;;;;;;;;;5074518;28;20198;-52
2023/07/16 02:49:04;;;;;;;3.53;2.53;;;;;;;;;;5074721;28;20641;-53
2023/07/16 02:51:30;;;;;;;4.17;2.70;;;;;;;;;;5074724;28;20200;-52
2023/07/16 02:53:56;;;;;;;3.20;2.90;;;;;;;;;;5074750;28;20195;-52
2023/07/16 02:56:24;;;;;;;3.20;2.67;;;;;;;;;;5074554;28;20205;-52
2023/07/16 02:58:50;;;;;;;4.47;3.63;;;;;;;;;;5074677;28;20280;-52
2023/07/16 03:01:16;;;;;;;4.97;3.67;;;;;;;;;;5074636;28;20224;-52
2023/07/16 03:03:42;;;;;;;3.27;2.60;;;;;;;;;;5074759;28;20609;-53
2023/07/16 03:06:08;;;;;;;3.47;2.63;;;;;;;;;;5074465;28;20220;-52
2023/07/16 03:08:34;;;;;;;4.10;2.83;;;;;;;;;;5074289;28;20698;-52
2023/07/16 03:11:00;;;;;;;3.07;2.50;;;;;;;;;;5074543;28;20205;-54
2023/07/16 03:13:28;;;;;;;3.57;2.80;;;;;;;;;;5074328;28;20297;-52
2023/07/16 03:15:54;;;;;;;5.63;3.20;;;;;;;;;;5074293;28;20210;-53
2023/07/16 03:18:20;;;;;;;4.40;2.77;;;;;;;;;;5074177;28;20200;-52
2023/07/16 03:20:46;;;;;;;4.23;2.50;;;;;;;;;;5074081;28;20243;-53
2023/07/16 03:23:12;;;;;;;4.20;2.50;;;;;;;;;;5074358;28;20204;-52
2023/07/16 03:25:38;;;;;;;4.50;2.80;;;;;;;;;;5073983;28;20573;-52
2023/07/16 03:28:04;;;;;;;4.37;2.40;;;;;;;;;;5073784;28;20212;-52
2023/07/16 03:30:32;;;;;;;4.67;2.27;;;;;;;;;;5073101;28;20225;-52
2023/07/16 03:32:58;;;;;;;3.30;2.40;;;;;;;;;;5073900;28;20206;-53
2023/07/16 03:35:25;;;;;;;5.50;2.70;;;;;;;;;;5073365;28;20210;-51
2023/07/16 03:37:51;;;;;;;4.83;2.80;;;;;;;;;;5074034;28;20234;-52
2023/07/16 03:40:18;;;;;;;4.60;2.57;;;;;;;;;;5073673;28;20243;-54
2023/07/16 03:42:44;;;;;;;2.73;2.10;;;;;;;;;;5073715;28;20241;-51
2023/07/16 03:45:11;;;;;;;3.03;2.37;;;;;;;;;;5073938;28;20208;-52
2023/07/16 03:47:39;;;;;;;6.60;2.70;;;;;;;;;;5073726;28;20668;-52
2023/07/16 03:50:05;;;;;;;2.60;2.40;;;;;;;;;;5073848;28;20228;-53
2023/07/16 03:52:31;;;;;;;3.27;2.60;;;;;;;;;;5073729;28;20225;-53
2023/07/16 03:54:57;;;;;;;4.47;2.60;;;;;;;;;;5073660;28;20197;-53
2023/07/16 03:57:23;;;;;;;4.33;2.40;;;;;;;;;;5073147;28;20200;-52
2023/07/16 03:59:49;;;;;;;3.27;2.40;;;;;;;;;;5073607;28;20263;-52
2023/07/16 04:02:15;;;;;;;3.10;2.50;;;;;;;;;;5073312;28;20663;-51
2023/07/16 04:04:43;;;;;;;2.23;2.00;;;;;;;;;;5073311;28;20228;-52
2023/07/16 04:07:09;;;;;;;4.63;2.67;;;;;;;;;;5073601;28;20205;-52
2023/07/16 04:09:37;;;;;;;3.97;2.37;;;;;;;;;;5073142;28;20228;-52
2023/07/16 04:12:04;;;;;;;5.27;3.00;;;;;;;;;;5073227;28;20221;-53
2023/07/16 04:14:30;;;;;;;5.17;2.63;;;;;;;;;;5073237;28;20224;-52
2023/07/16 04:16:56;;;;;;;4.13;2.70;;;;;;;;;;5073320;28;20262;-52
2023/07/16 04:19:22;;;;;;;5.70;2.70;;;;;;;;;;5073201;28;20658;-52
2023/07/16 04:21:49;;;;;;;6.37;3.03;;;;;;;;;;5073299;28;20195;-58
2023/07/16 04:24:15;;;;;;;6.57;2.90;;;;;;;;;;5073419;28;20201;-52
2023/07/16 04:26:41;;;;;;;4.03;3.10;;;;;;;;;;5073516;28;20709;-51
2023/07/16 04:29:07;;;;;;;3.90;2.60;;;;;;;;;;5073388;28;20222;-52
2023/07/16 04:31:33;;;;;;;5.60;3.60;;;;;;;;;;5073292;28;20193;-52
2023/07/16 04:33:59;;;;;;;5.80;3.43;;;;;;;;;;5073142;28;20197;-51
2023/07/16 04:36:25;;;;;;;6.03;3.20;;;;;;;;;;5073221;28;20195;-52
2023/07/16 04:38:53;;;;;;;5.53;3.20;;;;;;;;;;5073410;28;20192;-51
2023/07/16 04:41:19;;;;;;;8.37;3.93;;;;;;;;;;5073251;28;20204;-51
2023/07/16 04:43:45;;;;;;;6.17;3.50;;;;;;;;;;5072869;28;20232;-52
2023/07/16 04:46:11;;;;;;;5.30;3.13;;;;;;;;;;5073215;28;20236;-52
2023/07/16 04:48:37;;;;;;;7.23;3.67;;;;;;;;;;5072895;28;20680;-52
2023/07/16 04:51:03;;;;;;;5.97;3.10;;;;;;;;;;5072690;28;20211;-52
2023/07/16 04:53:29;;;;;;;5.80;3.40;;;;;;;;;;5072700;28;20671;-52
2023/07/16 04:55:57;;;;;;;5.83;3.90;;;;;;;;;;5072931;28;20655;-52
2023/07/16 04:58:23;;;;;;;5.60;3.17;;;;;;;;;;5072800;28;20258;-53
2023/07/16 05:00:49;;;;;;;5.97;3.50;;;;;;;;;;5072676;28;20560;-52
2023/07/16 05:03:15;;;;;;;3.40;3.07;;;;;;;;;;5072707;28;20204;-53
2023/07/16 05:05:41;;;;;;;5.47;3.30;;;;;;;;;;5072404;28;20215;-52
2023/07/16 05:08:07;;;;;;;5.60;3.17;;;;;;;;;;5071878;28;20199;-52
2023/07/16 05:10:33;;;;;;;4.57;3.20;;;;;;;;;;5072277;28;20326;-52
2023/07/16 05:13:03;;;;;;;3.93;3.20;;;;;;;;;;5072373;28;20200;-52
2023/07/16 05:15:29;;;;;;;6.70;3.37;;;;;;;;;;5072430;28;20193;-52
2023/07/16 05:17:57;;;;;;;5.10;3.27;;;;;;;;;;5072608;28;20197;-53
2023/07/16 05:20:23;;;;;;;4.70;2.70;;;;;;;;;;5072474;28;20286;-53
2023/07/16 05:22:49;;;;;;;5.47;3.27;;;;;;;;;;5072529;28;20284;-51
2023/07/16 05:25:15;;;;;;;3.77;2.77;;;;;;;;;;5072348;28;20205;-53
2023/07/16 05:27:41;;;;;;;5.47;2.97;;;;;;;;;;5072179;28;20207;-52
2023/07/16 05:30:09;;;;;;;6.17;3.20;;;;;;;;;;5072155;28;20230;-54
2023/07/16 05:32:35;;;;;;;4.77;3.13;;;;;;;;;;5071943;28;20774;-52
2023/07/16 05:35:01;;;;;;;5.30;3.00;;;;;;;;;;5072168;28;20197;-54
2023/07/16 05:37:27;;;;;;;5.17;3.43;;;;;;;;;;5072045;28;20662;-52
2023/07/16 05:39:53;;;;;;;6.47;3.30;;;;;;;;;;5072362;28;20284;-52
2023/07/16 05:42:19;;;;;;;4.10;2.90;;;;;;;;;;5071968;28;20638;-52
2023/07/16 05:44:47;;;;;;;5.10;3.20;;;;;;;;;;5072170;28;20209;-53
2023/07/16 05:47:14;;;;;;;4.57;2.70;;;;;;;;;;5071952;28;20199;-53
2023/07/16 05:49:41;;;;;;;5.20;3.00;;;;;;;;;;5071951;28;20238;-52
2023/07/16 05:52:08;;;;;;;5.90;3.50;;;;;;;;;;5072113;28;20247;-53
2023/07/16 05:54:34;;;;;;;3.17;2.33;;;;;;;;;;5071880;28;20208;-54
2023/07/16 05:57:00;;;;;;;5.80;3.03;;;;;;;;;;5072094;28;20200;-54
2023/07/16 05:59:26;;;;;;;4.60;2.63;;;;;;;;;;5071991;28;20196;-53
2023/07/16 06:01:52;;;;;;;4.63;3.07;;;;;;;;;;5071968;28;20606;-53
2023/07/16 06:04:20;;;;;;;4.97;2.77;;;;;;;;;;5071779;28;20193;-54
2023/07/16 06:06:46;;;;;;;5.60;2.33;;;;;;;;;;5071845;28;20365;-54
2023/07/16 06:09:12;;;;;;;4.13;2.80;;;;;;;;;;5071732;28;20729;-54
2023/07/16 06:11:38;;;;;;;5.40;2.77;;;;;;;;;;5071848;28;20232;-54
2023/07/16 06:14:04;;;;;;;4.03;2.33;;;;;;;;;;5071528;28;20703;-54
2023/07/16 06:16:30;;;;;;;3.60;2.67;;;;;;;;;;5071571;28;20752;-54
2023/07/16 06:18:56;;;;;;;4.17;2.50;;;;;;;;;;5072528;28;20206;-54
2023/07/16 06:21:24;;;;;;;4.33;2.47;;;;;;;;;;5075957;28;20194;-54
2023/07/16 06:23:50;;;;;;;4.87;2.43;;;;;;;;;;5075546;28;20201;-54
2023/07/16 06:26:16;;;;;;;6.03;2.80;;;;;;;;;;5075558;28;20743;-54
2023/07/16 06:28:42;;;;;;;4.80;2.70;;;;;;;;;;5075782;28;20296;-54
2023/07/16 06:31:08;;;;;;;4.10;3.00;;;;;;;;;;5075247;28;20201;-54
2023/07/16 06:33:34;;;;;;;6.73;3.17;;;;;;;;;;5074217;28;20586;-54
2023/07/16 06:36:00;;;;;;;5.57;3.10;;;;;;;;;;5074747;28;20209;-55
2023/07/16 06:38:27;;;;;;;6.13;2.90;;;;;;;;;;5075285;28;20187;-54
2023/07/16 06:40:54;;;;;;;5.33;3.03;;;;;;;;;;5075508;28;20200;-54
2023/07/16 06:43:20;;;;;;;4.03;2.60;;;;;;;;;;5075291;28;20235;-54
2023/07/16 06:45:46;;;;;;;4.30;2.83;;;;;;;;;;5075454;28;20471;-54
2023/07/16 06:48:12;;;;;;;4.53;2.57;;;;;;;;;;5075129;28;20306;-54
2023/07/16 06:50:38;;;;;;;5.77;2.20;;;;;;;;;;5075180;28;20219;-55
2023/07/16 06:53:04;;;;;;;5.23;2.23;;;;;;;;;;5075251;28;20555;-54
2023/07/16 06:55:31;;;;;;;5.17;2.17;;;;;;;;;;5075031;28;20203;-55
2023/07/16 06:57:57;;;;;;;6.63;2.37;;;;;;;;;;5075248;28;20221;-55
2023/07/16 07:00:23;;;;;;;5.57;2.67;;;;;;;;;;5075096;28;20291;-54
2023/07/16 07:02:49;;;;;;;10.30;3.00;;;;;;;;;;5074940;28;20248;-55
2023/07/16 07:05:15;;;;;;;4.50;2.40;;;;;;;;;;5074793;28;20231;-54
2023/07/16 07:07:42;;;;;;;3.60;2.17;;;;;;;;;;5075008;28;20191;-55
2023/07/16 07:10:08;;;;;;;6.17;2.40;;;;;;;;;;5074972;28;20231;-55
2023/07/16 07:12:37;;;;;;;5.00;2.93;;;;;;;;;;5071841;28;20192;-56
2023/07/16 07:15:03;;;;;;;5.13;2.70;;;;;;;;;;5074826;28;20200;-56
2023/07/16 07:17:29;;;;;;;6.27;2.87;;;;;;;;;;5074739;28;20286;-57
2023/07/16 07:19:55;;;;;;;4.53;2.50;;;;;;;;;;5074897;28;20279;-55
2023/07/16 07:22:21;;;;;;;6.20;2.97;;;;;;;;;;5074835;28;20205;-56
2023/07/16 07:24:47;;;;;;;6.40;2.90;;;;;;;;;;5074675;28;20199;-56
2023/07/16 07:27:13;;;;;;;7.00;3.10;;;;;;;;;;5074407;28;20803;-56
2023/07/16 07:29:41;;;;;;;5.60;2.50;;;;;;;;;;5074436;28;20288;-50
2023/07/16 07:32:07;;;;;;;6.97;3.27;;;;;;;;;;5073679;28;20294;-55
2023/07/16 07:34:33;;;;;;;6.80;3.13;;;;;;;;;;5074352;28;20200;-54
2023/07/16 07:36:59;;;;;;;6.47;3.40;;;;;;;;;;5074270;28;20199;-55
2023/07/16 07:39:26;;;;;;;4.90;3.13;;;;;;;;;;5070744;28;20554;-54
2023/07/16 07:41:52;;;;;;;4.10;3.03;;;;;;;;;;5074407;28;20211;-54
2023/07/16 07:44:18;;;;;;;6.00;3.10;;;;;;;;;;5073950;28;20285;-55
2023/07/16 07:46:45;;;;;;;5.53;3.13;;;;;;;;;;5073901;28;20294;-54
2023/07/16 07:49:11;;;;;;;6.67;3.00;;;;;;;;;;5074114;28;20257;-55
2023/07/16 07:51:37;;;;;;;5.57;3.10;;;;;;;;;;5073857;28;20195;-55
2023/07/16 07:54:03;;;;;;;5.47;3.03;;;;;;;;;;5073897;28;20210;-54
2023/07/16 07:56:30;;;;;;;5.70;3.13;;;;;;;;;;5073912;28;20217;-55
2023/07/16 07:58:56;;;;;;;5.00;3.33;;;;;;;;;;5074034;28;20235;-55
2023/07/16 08:01:22;;;;;;;6.00;3.30;;;;;;;;;;5073802;28;20202;-55
2023/07/16 08:03:49;;;;;;;7.57;3.23;;;;;;;;;;5073444;28;20199;-55
2023/07/16 08:06:16;;;;;;;5.43;3.00;;;;;;;;;;5073661;28;20231;-54
2023/07/16 08:08:42;;;;;;;5.17;3.37;;;;;;;;;;5073408;28;20211;-55
2023/07/16 08:11:08;;;;;;;5.60;3.77;;;;;;;;;;5073871;28;20230;-55
2023/07/16 08:13:34;;;;;;;5.23;3.23;;;;;;;;;;5073637;28;20196;-55
2023/07/16 08:16:00;;;;;;;5.87;3.37;;;;;;;;;;5073611;28;20623;-55
2023/07/16 08:18:26;;;;;;;5.53;3.30;;;;;;;;;;5073353;28;20204;-55
2023/07/16 08:20:53;;;;;;;9.37;4.00;;;;;;;;;;5073398;28;20578;-55
2023/07/16 08:23:19;;;;;;;5.20;3.97;;;;;;;;;;5073217;28;20198;-55
2023/07/16 08:25:45;;;;;;;7.70;4.03;;;;;;;;;;5073122;28;20211;-55
2023/07/16 08:28:12;;;;;;;8.50;3.50;;;;;;;;;;5073330;28;20278;-56
2023/07/16 08:30:38;;;;;;;7.50;3.30;;;;;;;;;;5073087;28;20227;-55
2023/07/16 08:33:04;;;;;;;9.33;3.67;;;;;;;;;;5073033;28;20555;-55
2023/07/16 08:35:30;;;;;;;6.67;3.33;;;;;;;;;;5072776;28;20199;-55
2023/07/16 08:37:57;;;;;;;6.07;4.03;;;;;;;;;;5073006;28;20195;-55
2023/07/16 08:40:23;;;;;;;6.03;4.00;;;;;;;;;;5072947;28;20200;-55
2023/07/16 08:42:50;;;;;;;5.60;4.20;;;;;;;;;;5072821;28;20236;-55
2023/07/16 08:45:16;;;;;;;5.60;3.43;;;;;;;;;;5072912;28;20205;-55
2023/07/16 08:47:42;;;;;;;6.60;3.50;;;;;;;;;;5072746;28;20214;-55
2023/07/16 08:50:09;;;;;;;4.47;3.53;;;;;;;;;;5072685;28;20228;-55
2023/07/16 08:52:35;;;;;;;7.37;3.50;;;;;;;;;;5072448;28;20199;-55
2023/07/16 08:55:03;;;;;;;5.40;3.60;;;;;;;;;;5072464;28;20563;-55
2023/07/16 08:57:30;;;;;;;6.60;3.50;;;;;;;;;;5072595;28;20728;-55
2023/07/16 08:59:56;;;;;;;4.70;3.53;;;;;;;;;;5072513;28;20196;-54
2023/07/16 09:02:22;;;;;;;4.47;3.40;;;;;;;;;;5072610;28;20199;-54
2023/07/16 09:04:49;;;;;;;4.60;3.37;;;;;;;;;;5072159;28;20254;-54
2023/07/16 09:07:15;;;;;;;6.97;3.73;;;;;;;;;;5072643;28;20194;-54
2023/07/16 09:09:41;;;;;;;6.43;3.83;;;;;;;;;;5072444;28;20276;-55
2023/07/16 09:12:11;;;;;;;6.93;3.60;;;;;;;;;;5072651;28;20201;-55
2023/07/16 09:14:37;;;;;;;9.67;3.80;;;;;;;;;;5072300;28;20300;-55
2023/07/16 09:17:04;;;;;;;5.90;3.43;;;;;;;;;;5072329;28;20284;-55
2023/07/16 09:19:32;;;;;;;5.53;3.30;;;;;;;;;;5071616;28;20613;-54
2023/07/16 09:21:59;;;;;;;6.60;3.20;;;;;;;;;;5072383;28;20215;-56
2023/07/16 09:24:25;;;;;;;4.97;3.17;;;;;;;;;;5072105;28;20204;-56
2023/07/16 09:26:52;;;;;;;5.13;3.50;;;;;;;;;;5072033;28;20228;-56
2023/07/16 09:29:20;;;;;;;6.87;2.97;;;;;;;;;;5071838;28;20245;-55
2023/07/16 09:31:56;;;;;;;4.83;3.30;;;;;;;;;;5071666;28;20607;-55
2023/07/16 09:34:22;;;;;;;6.40;3.67;;;;;;;;;;5071972;28;20278;-56
2023/07/16 09:36:49;;;;;;;4.83;3.10;;;;;;;;;;5071998;28;20195;-55
2023/07/16 09:39:16;;;;;;;5.50;3.00;;;;;;;;;;5072262;28;20201;-55
2023/07/16 09:41:42;;;;;;;7.40;3.53;;;;;;;;;;5071732;28;20278;-55
2023/07/16 09:44:08;;;;;;;4.23;3.03;;;;;;;;;;5070791;28;20344;-56
2023/07/16 09:46:35;;;;;;;3.83;2.90;;;;;;;;;;5071901;28;20203;-56
2023/07/16 09:49:01;;;;;;;3.60;3.20;;;;;;;;;;5072057;28;20227;-54
2023/07/16 09:51:28;;;;;;;4.57;2.73;;;;;;;;;;5072257;28;20238;-54
2023/07/16 09:53:54;;;;;;;5.17;3.20;;;;;;;;;;5071839;28;20612;-54
2023/07/16 09:56:21;;;;;;;7.43;3.53;;;;;;;;;;5072326;28;20193;-54
2023/07/16 09:58:47;;;;;;;5.50;3.00;;;;;;;;;;5071892;28;20212;-54
2023/07/16 10:01:13;;;;;;;4.63;2.90;;;;;;;;;;5072051;28;20197;-55
2023/07/16 10:03:50;;;;;;;7.17;3.00;;;;;;;;;;5071943;28;20203;-54
2023/07/16 10:06:16;;;;;;;7.47;3.00;;;;;;;;;;5071914;28;20248;-54
2023/07/16 10:08:49;;;;;;;4.30;2.87;;;;;;;;;;5071936;28;20224;-54
2023/07/16 10:11:17;;;;;;;4.80;2.80;;;;;;;;;;5072020;28;20298;-54
2023/07/16 10:13:43;;;;;;;3.17;2.87;;;;;;;;;;5071801;28;20197;-54
2023/07/16 10:16:11;;;;;;;4.23;2.40;;;;;;;;;;5072067;28;20200;-54
2023/07/16 10:18:37;;;;;;;4.23;2.90;;;;;;;;;;5071645;28;20663;-54
2023/07/16 10:21:08;;;;;;;4.57;2.67;;;;;;;;;;5071853;28;20549;-54
2023/07/16 10:23:37;;;;;;;4.93;2.90;;;;;;;;;;5071789;28;20212;-54
2023/07/16 10:26:08;;;;;;;4.73;2.77;;;;;;;;;;5071977;28;20604;-54
2023/07/16 10:28:35;;;;;;;8.73;3.37;;;;;;;;;;5071741;28;20243;-55
2023/07/16 10:31:01;;;;;;;5.07;2.77;;;;;;;;;;5071782;28;20347;-55
2023/07/16 10:33:27;;;;;;;5.10;2.87;;;;;;;;;;5071725;28;20209;-54
2023/07/16 10:35:53;;;;;;;5.40;2.90;;;;;;;;;;5071750;28;20532;-53
2023/07/16 10:38:20;;;;;;;3.83;2.37;;;;;;;;;;5071732;28;20710;-53
2023/07/16 10:40:46;;;;;;;3.60;2.67;;;;;;;;;;5071353;28;20205;-53
2023/07/16 10:43:12;;;;;;;3.47;2.70;;;;;;;;;;5071577;28;20239;-53
2023/07/16 10:45:39;;;;;;;7.73;2.77;;;;;;;;;;5071701;28;20210;-53
2023/07/16 10:48:05;;;;;;;5.63;3.33;;;;;;;;;;5071806;28;20210;-55
2023/07/16 10:50:33;;;;;;;3.70;2.70;;;;;;;;;;5071556;28;20221;-53
2023/07/16 10:52:59;;;;;;;6.63;3.30;;;;;;;;;;5071692;28;20221;-55
2023/07/16 10:55:28;;;;;;;6.17;2.77;;;;;;;;;;5071574;28;20651;-55
2023/07/16 10:57:54;;;;;;;4.20;2.97;;;;;;;;;;5071617;28;20224;-53
2023/07/16 11:00:21;;;;;;;5.13;2.73;;;;;;;;;;5071400;28;20240;-53
2023/07/16 11:02:47;;;;;;;5.03;2.70;;;;;;;;;;5071057;28;20198;-54
2023/07/16 11:05:14;;;;;;;4.53;2.80;;;;;;;;;;5070583;28;20636;-53
2023/07/16 11:07:43;;;;;;;5.20;2.97;;;;;;;;;;5074462;28;20198;-53
2023/07/16 11:10:09;;;;;;;3.10;2.50;;;;;;;;;;5074699;28;20225;-54
2023/07/16 11:12:37;;;;;;;4.37;2.60;;;;;;;;;;5074671;28;20210;-55
2023/07/16 11:15:03;;;;;;;4.73;3.00;;;;;;;;;;5074926;28;20298;-54
2023/07/16 11:17:30;;;;;;;3.73;2.60;;;;;;;;;;5074671;28;20540;-53
2023/07/16 11:19:56;;;;;;;6.60;3.10;;;;;;;;;;5074985;28;20202;-53
2023/07/16 11:22:25;;;;;;;4.70;2.80;;;;;;;;;;5074502;28;20579;-55
2023/07/16 11:24:52;;;;;;;3.73;2.60;;;;;;;;;;5074393;28;20598;-53
2023/07/16 11:27:18;;;;;;;3.60;2.53;;;;;;;;;;5074740;28;20198;-54
2023/07/16 11:29:49;;;;;;;6.00;2.80;;;;;;;;;;5074198;28;20227;-54
2023/07/16 11:32:26;;;;;;;4.93;2.50;;;;;;;;;;5074617;28;20231;-54
2023/07/16 11:34:53;;;;;;;5.40;2.83;;;;;;;;;;5074573;28;20206;-54
2023/07/16 11:37:20;;;;;;;5.23;3.03;;;;;;;;;;5074573;28;20208;-54
2023/07/16 11:39:47;;;;;;;3.73;2.87;;;;;;;;;;5071811;28;20261;-53
2023/07/16 11:42:13;;;;;;;10.83;3.93;;;;;;;;;;5073973;28;20254;-54
2023/07/16 11:44:39;;;;;;;3.57;3.27;;;;;;;;;;5074273;28;20200;-53
2023/07/16 11:47:07;;;;;;;4.83;4.10;;;;;;;;;;5074004;28;20578;-53
2023/07/16 11:49:33;;;;;;;4.30;3.47;;;;;;;;;;5071996;28;20225;-53
2023/07/16 11:51:59;;;;;;;7.07;2.67;;;;;;;;;;5074105;28;20207;-53
2023/07/16 11:54:25;;;;;;;4.23;2.73;;;;;;;;;;5074091;28;20199;-54
2023/07/16 11:56:51;;;;;;;3.60;2.87;;;;;;;;;;5073897;28;20690;-54
2023/07/16 11:59:20;;;;;;;4.47;3.00;;;;;;;;;;5073861;28;20287;-53
2023/07/16 12:01:48;;;;;;;4.80;2.70;;;;;;;;;;5073716;28;20318;-53
2023/07/16 12:04:16;;;;;;;3.57;2.57;;;;;;;;;;5073480;28;20250;-54
2023/07/16 12:06:42;;;;;;;4.63;2.57;;;;;;;;;;5073530;28;20201;-53
2023/07/16 12:09:08;;;;;;;5.20;2.47;;;;;;;;;;5073595;28;20204;-53
2023/07/16 12:11:34;;;;;;;3.77;2.40;;;;;;;;;;5073389;28;20619;-53
2023/07/16 12:14:01;;;;;;;4.40;2.83;;;;;;;;;;5073453;28;20250;-54
2023/07/16 12:16:27;;;;;;;3.93;2.63;;;;;;;;;;5072983;28;20617;-54
2023/07/16 12:18:52;;;;;;;4.27;2.60;;;;;;;;;;5073263;28;20305;-54
2023/07/16 12:21:20;;;;;;;4.07;2.63;;;;;;;;;;5073355;28;20194;-54
2023/07/16 12:23:46;;;;;;;3.20;2.60;;;;;;;;;;5073225;28;20217;-55
2023/07/16 12:26:12;;;;;;;3.77;2.60;;;;;;;;;;5073412;28;20208;-54
2023/07/16 12:28:38;;;;;;;3.73;2.50;;;;;;;;;;5073156;28;20207;-54
2023/07/16 12:31:04;;;;;;;5.00;3.00;;;;;;;;;;5065542;28;20218;-55
2023/07/16 12:33:30;;;;;;;3.20;2.70;;;;;;;;;;5062569;28;20226;-55
2023/07/16 12:35:56;;;;;;;3.33;2.73;;;;;;;;;;5061397;28;20210;-54
2023/07/16 12:38:24;;;;;;;6.47;2.90;;;;;;;;;;5063253;28;20217;-54
2023/07/16 12:40:50;;;;;;;5.23;3.13;;;;;;;;;;5065787;28;20222;-54
2023/07/16 12:43:16;;;;;;;4.47;2.50;;;;;;;;;;5072787;28;20246;-54
2023/07/16 12:45:42;;;;;;;3.20;2.60;;;;;;;;;;5072718;28;20230;-54
2023/07/16 12:48:08;;;;;;;3.33;2.70;;;;;;;;;;5072762;28;20610;-53
2023/07/16 12:50:34;;;;;;;9.27;2.90;;;;;;;;;;5072645;28;20226;-54
2023/07/16 12:53:00;;;;;;;3.60;2.33;;;;;;;;;;5072796;28;20202;-53
2023/07/16 12:55:27;;;;;;;4.30;2.60;;;;;;;;;;5072794;28;20269;-53
2023/07/16 12:57:53;;;;;;;5.80;2.80;;;;;;;;;;5072611;28;20211;-54
2023/07/16 13:00:19;;;;;;;4.93;2.90;;;;;;;;;;5072524;28;20277;-53
2023/07/16 13:02:45;;;;;;;5.70;2.80;;;;;;;;;;5072697;28;20210;-54
2023/07/16 13:05:11;;;;;;;5.63;2.80;;;;;;;;;;5072570;28;20253;-53
2023/07/16 13:07:37;;;;;;;4.83;2.60;;;;;;;;;;5072421;28;20568;-53
2023/07/16 13:10:04;;;;;;;6.10;2.77;;;;;;;;;;5072462;28;20223;-53
2023/07/16 13:12:31;;;;;;;6.13;2.63;;;;;;;;;;5072370;28;20199;-54
2023/07/16 13:14:57;;;;;;;4.93;2.87;;;;;;;;;;5072126;28;20264;-54
2023/07/16 13:17:23;;;;;;;2.90;2.50;;;;;;;;;;5072343;28;20195;-54
2023/07/16 13:19:49;;;;;;;4.93;2.20;;;;;;;;;;5072125;28;20592;-54
2023/07/16 13:22:15;;;;;;;5.13;2.50;;;;;;;;;;5072178;28;20195;-54
2023/07/16 13:24:42;;;;;;;3.53;2.23;;;;;;;;;;5072002;28;20251;-54
2023/07/16 13:27:10;;;;;;;4.03;2.50;;;;;;;;;;5072471;28;20200;-54
2023/07/16 13:29:37;;;;;;;5.03;2.60;;;;;;;;;;5071195;28;20215;-55
2023/07/16 13:32:04;;;;;;;5.63;2.70;;;;;;;;;;5052585;28;20288;-54
2023/07/16 13:34:29;;;;;;;3.70;2.70;;;;;;;;;;5060517;28;20200;-55
2023/07/16 13:36:55;;;;;;;5.13;2.87;;;;;;;;;;5062019;28;20192;-54
2023/07/16 13:39:21;;;;;;;2.87;2.37;;;;;;;;;;5059852;28;20191;-54
2023/07/16 13:41:47;;;;;;;4.43;2.53;;;;;;;;;;5051918;28;20870;-54
2023/07/16 13:44:15;;;;;;;6.13;3.27;;;;;;;;;;5051871;28;20281;-54
2023/07/16 13:46:43;;;;;;;5.67;2.87;;;;;;;;;;5050333;28;20203;-55
2023/07/16 13:49:09;;;;;;;5.53;2.47;;;;;;;;;;5051916;28;20287;-55
2023/07/16 13:51:35;;;;;;;3.57;2.50;;;;;;;;;;5052345;28;20306;-55
2023/07/16 13:54:01;;;;;;;3.83;2.60;;;;;;;;;;5060884;28;20753;-55
2023/07/16 13:56:27;;;;;;;3.90;2.57;;;;;;;;;;5071627;28;20203;-53
2023/07/16 13:58:53;;;;;;;3.50;2.40;;;;;;;;;;5071540;28;20219;-55
2023/07/16 14:01:20;;;;;;;7.03;2.83;;;;;;;;;;5071634;28;20251;-54
2023/07/16 14:03:47;;;;;;;3.47;2.20;;;;;;;;;;5071053;28;20207;-53
2023/07/16 14:06:13;;;;;;;4.63;2.50;;;;;;;;;;5071659;28;20211;-53
2023/07/16 14:08:39;;;;;;;6.03;3.00;;;;;;;;;;5071401;28;20199;-53
2023/07/16 14:11:05;;;;;;;3.73;2.50;;;;;;;;;;5071369;28;20234;-54
2023/07/16 14:13:31;;;;;;;3.10;2.47;;;;;;;;;;5068032;28;20460;-54
2023/07/16 14:15:58;;;;;;;5.43;2.53;;;;;;;;;;5071039;28;20198;-54
2023/07/16 14:18:24;;;;;;;4.60;2.70;;;;;;;;;;5071842;28;20201;-54
2023/07/16 14:20:51;;;;;;;4.80;2.40;;;;;;;;;;5071540;28;20549;-54
2023/07/16 14:23:17;;;;;;;3.47;2.50;;;;;;;;;;5069976;28;21171;-55
2023/07/16 14:25:43;;;;;;;5.20;2.30;;;;;;;;;;5070975;28;20209;-53
2023/07/16 14:28:09;;;;;;;5.00;2.57;;;;;;;;;;5071326;28;20222;-53
2023/07/16 14:30:35;;;;;;;3.97;2.30;;;;;;;;;;5071009;28;20665;-54
2023/07/16 14:33:03;;;;;;;3.77;2.50;;;;;;;;;;5071131;28;20227;-54
2023/07/16 14:35:29;;;;;;;3.00;2.40;;;;;;;;;;5071125;28;20598;-54
2023/07/16 14:37:57;;;;;;;3.53;2.50;;;;;;;;;;5071156;28;20623;-53
2023/07/16 14:40:23;;;;;;;4.67;2.43;;;;;;;;;;5072758;28;20188;-54